עמוד ראשי
METAR-TAF:

METAR-TAF

שדות תעופה :

Fort Resolution, הטריטוריות הצפון-מערביות, קנדה

קו רוחב: 61-11N, קו אורך: 113-41W, גובה: 164מטר

תצפית מזג אוויר נוכחית

הדו"ח נערך לפני 55דקות, בשעה 17:00 UTC
רוח 14קשר מכיוון צפון עם משבים עד 21קשר
טמפרטורת 7 צלסיוס
לחות 76%
לחץ 1009 hPa
ראות: 24.1קילומטר
עננים פזורים בגובה 2100רגל
עננים בינוניים בגובה 16000רגל

METAR: CYFR 171700Z 35014G21KT 15SM SCT021 BKN160 07/03 A2979 RMK SC4AC3 SLP098

זמן: 11:55 (17:55 UTC)


TAF: חסר

תצפיות ותחזיות מזג אוויר לגבי יותר מ- 4,000 שדות תעופה ברחבי העולם. דוחות METAR ו- TAF.

התחנות הזמינות מסומנות בנקודות צהובות ואדומות על גבי המפה.

העבר את העכבר לנקודה הצבעונית על מנת לראות את שם התחנה.

לאחר מכן, לחץ כדי לראות את תוכן ואת תחזיות מזג האוויר.

כדי לשנות את המפה: לחץ על הכפתורים הירוקים עם הפלוס השחור כדי להתקרב; על הכפתור הירוק עם המקף כדי להתרחק; או בחיצים הירוקים למפות סמוכות.


METAR-TAF: